Time;durP1;ratioP1;P1;durP2;ratioP2;P2;SDS_P1;SDS_P2;PMS_P1;PMS_P2;Temp;Humidity;BMP_temperature;BMP_pressure;BME280_temperature;BME280_humidity;BME280_pressure;Samples;Min_cycle;Max_cycle;Signal;HPM_P1;HPM_P2
2022/12/16 00:01:12;;;;;;;2.45;0.98;;;21.70;43.10;;;;;;4069182;29;20058;-42
2022/12/16 00:03:35;;;;;;;3.22;0.93;;;21.70;43.10;;;;;;4063817;29;20044;-43
2022/12/16 00:05:57;;;;;;;1.33;0.87;;;21.70;43.00;;;;;;4069518;29;20510;-47
2022/12/16 00:08:20;;;;;;;4.47;1.00;;;21.70;43.00;;;;;;4066478;29;20063;-48
2022/12/16 00:10:54;;;;;;;5.95;1.20;;;21.70;43.80;;;;;;4058278;29;20031;-45
2022/12/16 00:13:23;;;;;;;4.35;1.08;;;21.70;44.10;;;;;;4061955;29;20044;-48
2022/12/16 00:15:46;;;;;;;3.60;1.20;;;21.70;44.00;;;;;;4757628;23;20060;-39
2022/12/16 00:18:08;;;;;;;6.43;1.25;;;21.70;43.90;;;;;;4050853;29;20534;-40
2022/12/16 00:20:31;;;;;;;5.22;1.25;;;21.70;43.70;;;;;;4054199;29;20043;-42
2022/12/16 00:22:54;;;;;;;6.15;1.30;;;21.70;43.60;;;;;;4054791;29;20059;-44
2022/12/16 00:25:16;;;;;;;2.25;0.90;;;21.70;43.50;;;;;;4056119;29;20124;-40
2022/12/16 00:27:39;;;;;;;4.85;1.38;;;21.70;43.40;;;;;;4063263;29;20051;-38
2022/12/16 00:30:01;;;;;;;8.27;1.38;;;21.70;44.70;;;;;;4065884;29;20400;-41
2022/12/16 00:32:24;;;;;;;5.70;1.00;;;21.70;44.00;;;;;;4069528;29;20475;-38
2022/12/16 00:34:46;;;;;;;3.78;1.52;;;21.80;43.50;;;;;;4069824;29;20119;-40
2022/12/16 00:37:10;;;;;;;5.65;1.20;;;21.80;43.50;;;;;;4069245;29;20070;-38
2022/12/16 00:39:33;;;;;;;3.25;1.10;;;21.80;43.60;;;;;;4071558;29;20382;-38
2022/12/16 00:41:55;;;;;;;13.85;1.77;;;21.80;43.40;;;;;;4072401;29;20047;-38
2022/12/16 00:46:28;;;;;;;5.32;1.20;;;21.80;44.10;;;;;;4223864;23;20059;-49
2022/12/16 00:48:51;;;;;;;4.10;1.00;;;21.80;43.30;;;;;;4057540;29;20032;-47
2022/12/16 00:51:13;;;;;;;3.53;0.95;;;21.80;43.30;;;;;;4061821;29;20828;-51
2022/12/16 00:53:37;;;;;;;4.60;1.20;;;21.80;43.40;;;;;;4066404;29;20090;-49
2022/12/16 00:56:08;;;;;;;3.03;0.82;;;21.70;43.30;;;;;;4066618;29;20055;-53
2022/12/16 00:58:30;;;;;;;3.78;1.15;;;21.70;43.30;;;;;;4063932;29;20051;-50
2022/12/16 01:00:53;;;;;;;3.85;0.98;;;21.70;43.30;;;;;;4066383;29;20048;-51
2022/12/16 01:03:15;;;;;;;2.95;1.08;;;21.70;43.30;;;;;;4063024;29;20039;-50
2022/12/16 01:05:38;;;;;;;2.30;1.00;;;21.70;43.30;;;;;;4070116;29;20507;-50
2022/12/16 01:08:01;;;;;;;4.45;1.30;;;21.70;43.30;;;;;;4067831;29;20065;-51
2022/12/16 01:10:25;;;;;;;2.13;0.80;;;21.70;43.30;;;;;;4067617;29;20032;-50
2022/12/16 01:12:48;;;;;;;1.83;0.80;;;21.70;43.50;;;;;;4063394;29;20146;-51
2022/12/16 01:15:12;;;;;;;5.05;1.00;;;21.70;43.30;;;;;;4066669;29;20368;-49
2022/12/16 01:17:38;;;;;;;2.00;0.85;;;21.70;43.40;;;;;;4077022;29;20032;-49
2022/12/16 01:20:37;;;;;;;2.78;1.10;;;21.70;43.40;;;;;;4077868;29;20050;-52
2022/12/16 01:23:00;;;;;;;2.90;0.98;;;21.70;43.50;;;;;;4071599;29;20136;-47
2022/12/16 01:28:42;;;;;;;3.50;0.95;;;21.70;43.70;;;;;;4064056;29;20569;-51
2022/12/16 01:31:05;;;;;;;2.30;1.20;;;21.70;43.80;;;;;;4062803;29;20039;-47
2022/12/16 01:33:29;;;;;;;1.52;0.80;;;21.70;44.10;;;;;;4064971;29;20035;-50
2022/12/16 01:35:59;;;;;;;2.67;0.90;;;21.70;44.10;;;;;;4062855;29;20130;-46
2022/12/16 01:38:21;;;;;;;3.40;1.30;;;21.70;44.00;;;;;;4067472;29;20531;-52
2022/12/16 01:40:44;;;;;;;2.33;1.08;;;21.70;44.30;;;;;;4060043;29;20052;-49
2022/12/16 01:43:14;;;;;;;2.78;0.90;;;21.70;44.20;;;;;;4061397;29;20055;-52
2022/12/16 01:47:47;;;;;;;3.25;0.98;;;21.70;44.00;;;;;;4214837;23;20392;-49
2022/12/16 01:50:16;;;;;;;2.95;1.13;;;21.70;43.90;;;;;;4045997;29;20032;-44
2022/12/16 01:52:45;;;;;;;4.07;1.10;;;21.70;44.00;;;;;;4044072;29;20055;-50
2022/12/16 01:55:17;;;;;;;2.80;1.17;;;21.70;44.10;;;;;;4048209;29;20408;-51
2022/12/16 01:57:53;;;;;;;2.22;1.00;;;21.70;44.10;;;;;;4049983;29;20047;-47
2022/12/16 02:00:16;;;;;;;4.25;1.13;;;21.70;44.00;;;;;;4047753;29;20048;-50
2022/12/16 02:02:40;;;;;;;2.88;0.95;;;21.70;44.10;;;;;;4049362;29;20504;-51
2022/12/16 02:05:21;;;;;;;3.80;1.30;;;21.70;44.00;;;;;;4042605;29;20071;-47
2022/12/16 02:07:44;;;;;;;2.33;1.17;;;21.80;44.20;;;;;;4047614;29;20079;-50
2022/12/16 02:10:07;;;;;;;2.47;1.13;;;21.80;44.10;;;;;;4031935;29;20037;-47
2022/12/16 02:12:36;;;;;;;3.00;1.07;;;21.80;44.10;;;;;;4029721;29;20044;-50
2022/12/16 02:17:35;;;;;;;4.18;1.38;;;21.80;44.10;;;;;;4060236;23;20056;-38
2022/12/16 02:20:27;;;;;;;2.25;1.15;;;21.80;44.30;;;;;;4046487;29;20095;-38
2022/12/16 02:23:08;;;;;;;3.08;1.17;;;21.80;44.40;;;;;;4045717;29;20052;-37
2022/12/16 02:26:06;;;;;;;3.50;1.15;;;21.80;44.50;;;;;;4046958;29;20051;-38
2022/12/16 02:28:32;;;;;;;2.97;1.20;;;21.80;44.40;;;;;;4046612;29;20051;-38
2022/12/16 02:31:12;;;;;;;2.90;1.10;;;21.80;44.40;;;;;;4050466;29;20037;-38
2022/12/16 02:33:38;;;;;;;3.25;1.23;;;21.80;45.10;;;;;;4048528;29;20044;-38
2022/12/16 02:36:00;;;;;;;2.30;1.02;;;21.80;44.40;;;;;;4054803;29;20038;-37
2022/12/16 02:39:08;;;;;;;3.75;1.27;;;21.80;44.30;;;;;;4049702;29;20044;-37
2022/12/16 02:41:49;;;;;;;2.28;1.05;;;21.90;44.40;;;;;;4038008;29;20056;-39
2022/12/16 02:44:12;;;;;;;1.23;0.80;;;21.90;44.50;;;;;;4062510;29;20042;-40
2022/12/16 02:46:41;;;;;;;2.45;1.10;;;21.80;44.60;;;;;;4066035;29;20140;-38
2022/12/16 02:49:12;;;;;;;4.88;1.58;;;21.80;44.80;;;;;;4059439;29;20032;-37
2022/12/16 02:51:37;;;;;;;4.53;1.23;;;21.90;44.80;;;;;;4067165;29;20044;-37
2022/12/16 02:54:00;;;;;;;2.45;0.95;;;21.90;44.80;;;;;;4055420;29;20040;-39
2022/12/16 02:56:32;;;;;;;3.05;0.98;;;21.90;44.70;;;;;;4053002;29;20070;-38
2022/12/16 02:59:09;;;;;;;3.33;1.30;;;21.90;44.60;;;;;;4052701;29;20036;-38
2022/12/16 03:01:52;;;;;;;2.50;0.90;;;21.90;44.60;;;;;;4055598;29;20135;-37
2022/12/16 03:04:18;;;;;;;4.38;1.20;;;21.90;44.50;;;;;;4055109;29;20080;-38
2022/12/16 03:06:44;;;;;;;3.35;1.05;;;22.00;44.50;;;;;;4054269;29;20517;-38
2022/12/16 03:09:11;;;;;;;3.95;1.20;;;22.00;44.60;;;;;;4053950;29;20111;-39
2022/12/16 03:11:35;;;;;;;3.33;1.23;;;22.00;44.70;;;;;;4054029;29;20044;-38
2022/12/16 03:13:59;;;;;;;3.30;1.00;;;22.00;44.70;;;;;;4054395;29;20032;-41
2022/12/16 03:16:29;;;;;;;2.72;1.20;;;22.00;44.70;;;;;;4054310;29;20051;-37
2022/12/16 03:18:55;;;;;;;3.05;1.52;;;22.00;44.70;;;;;;4051995;29;20586;-38
2022/12/16 03:21:20;;;;;;;2.55;1.02;;;22.00;44.50;;;;;;4051624;29;20044;-36
2022/12/16 03:24:06;;;;;;;3.13;1.05;;;22.10;44.70;;;;;;4055287;29;20051;-37
2022/12/16 03:26:39;;;;;;;3.47;1.23;;;22.10;44.60;;;;;;4050417;29;20047;-37
2022/12/16 03:29:14;;;;;;;2.65;1.13;;;22.10;44.70;;;;;;4050066;29;20040;-38
2022/12/16 03:32:02;;;;;;;2.90;1.35;;;22.10;44.70;;;;;;4045138;29;20036;-36
2022/12/16 03:34:33;;;;;;;4.15;1.20;;;22.10;44.70;;;;;;4045334;29;20345;-36
2022/12/16 03:37:03;;;;;;;1.98;0.85;;;22.10;44.80;;;;;;4046473;29;20539;-40
2022/12/16 03:39:26;;;;;;;5.22;1.30;;;22.10;44.90;;;;;;4042840;29;20127;-37
2022/12/16 03:41:53;;;;;;;3.75;1.40;;;22.10;45.00;;;;;;4041181;29;20099;-38
2022/12/16 03:44:16;;;;;;;5.32;1.67;;;22.10;45.10;;;;;;4035608;29;20028;-37
2022/12/16 03:46:39;;;;;;;5.50;1.13;;;22.20;45.20;;;;;;4044292;29;20051;-39
2022/12/16 03:49:02;;;;;;;1.75;0.77;;;22.20;45.20;;;;;;4047401;29;20392;-38
2022/12/16 03:51:24;;;;;;;3.13;1.17;;;22.20;45.40;;;;;;4047615;29;20630;-38
2022/12/16 03:53:47;;;;;;;4.10;1.15;;;22.20;45.20;;;;;;4045692;29;20051;-37
2022/12/16 03:56:10;;;;;;;4.25;1.45;;;22.20;45.20;;;;;;4047022;29;20040;-39
2022/12/16 03:58:34;;;;;;;6.55;1.98;;;22.30;45.10;;;;;;4044985;29;20216;-38
2022/12/16 04:00:56;;;;;;;2.42;1.00;;;22.30;45.10;;;;;;4045475;29;20495;-39
2022/12/16 04:03:21;;;;;;;3.13;1.10;;;22.30;45.10;;;;;;4046907;29;20032;-37
2022/12/16 04:05:45;;;;;;;4.07;1.55;;;22.30;45.00;;;;;;4041158;29;20051;-37
2022/12/16 04:08:07;;;;;;;;;;;22.40;45.10;;;;;;4046534;29;20479;-37
2022/12/16 04:29:18;;;;;;;4.22;1.38;;;22.60;44.90;;;;;;4045970;29;20147;-38
2022/12/16 04:31:40;;;;;;;2.92;1.20;;;22.70;44.80;;;;;;4038400;29;20452;-39
